sensor_id;sensor_type;location;lat;lon;timestamp;pressure;altitude;pressure_sealevel;temperature;humidity
16613;BME280;8419;52.358;9.752;2022-08-02T00:01:59;101257.00;;;25.99;34.33
16613;BME280;8419;52.358;9.752;2022-08-02T00:04:44;101262.00;;;25.96;34.38
16613;BME280;8419;52.358;9.752;2022-08-02T00:07:30;101260.00;;;25.93;34.44
16613;BME280;8419;52.358;9.752;2022-08-02T00:10:15;101261.00;;;25.92;34.46
16613;BME280;8419;52.358;9.752;2022-08-02T00:13:00;101258.00;;;25.92;34.44
16613;BME280;8419;52.358;9.752;2022-08-02T00:15:45;101259.00;;;25.91;34.46
16613;BME280;8419;52.358;9.752;2022-08-02T00:18:30;101261.00;;;25.95;34.42
16613;BME280;8419;52.358;9.752;2022-08-02T00:21:16;101261.00;;;26.02;34.33
16613;BME280;8419;52.358;9.752;2022-08-02T00:24:02;101261.00;;;25.90;34.56
16613;BME280;8419;52.358;9.752;2022-08-02T00:26:47;101261.00;;;25.89;34.59
16613;BME280;8419;52.358;9.752;2022-08-02T00:29:32;101260.00;;;25.77;34.79
16613;BME280;8419;52.358;9.752;2022-08-02T00:32:18;101258.00;;;25.75;34.83
16613;BME280;8419;52.358;9.752;2022-08-02T00:35:05;101270.00;;;25.86;34.67
16613;BME280;8419;52.358;9.752;2022-08-02T00:37:50;101266.00;;;25.74;34.87
16613;BME280;8419;52.358;9.752;2022-08-02T00:40:35;101262.00;;;25.83;34.77
16613;BME280;8419;52.358;9.752;2022-08-02T00:43:21;101274.00;;;25.70;35.01
16613;BME280;8419;52.358;9.752;2022-08-02T00:46:06;101272.00;;;25.69;35.04
16613;BME280;8419;52.358;9.752;2022-08-02T00:48:51;101269.00;;;25.79;34.88
16613;BME280;8419;52.358;9.752;2022-08-02T00:51:40;101269.00;;;25.78;34.95
16613;BME280;8419;52.358;9.752;2022-08-02T00:54:26;101267.00;;;25.80;34.92
16613;BME280;8419;52.358;9.752;2022-08-02T00:57:11;101264.00;;;25.74;35.01
16613;BME280;8419;52.358;9.752;2022-08-02T00:59:56;101264.00;;;25.78;34.98
16613;BME280;8419;52.358;9.752;2022-08-02T01:02:41;101261.00;;;25.93;34.81
16613;BME280;8419;52.358;9.752;2022-08-02T01:05:27;101272.00;;;26.00;34.76
16613;BME280;8419;52.358;9.752;2022-08-02T01:08:12;101265.00;;;25.93;34.94
16613;BME280;8419;52.358;9.752;2022-08-02T01:10:58;101255.00;;;26.01;34.80
16613;BME280;8419;52.358;9.752;2022-08-02T01:13:44;101256.00;;;26.02;34.77
16613;BME280;8419;52.358;9.752;2022-08-02T01:16:34;101259.00;;;25.92;34.97
16613;BME280;8419;52.358;9.752;2022-08-02T01:19:33;101264.00;;;25.86;35.09
16613;BME280;8419;52.358;9.752;2022-08-02T01:22:40;101263.00;;;25.87;35.06
16613;BME280;8419;52.358;9.752;2022-08-02T01:25:59;101254.00;;;25.83;35.12
16613;BME280;8419;52.358;9.752;2022-08-02T01:28:49;101256.00;;;25.81;35.17
16613;BME280;8419;52.358;9.752;2022-08-02T01:31:41;101252.00;;;25.67;35.29
16613;BME280;8419;52.358;9.752;2022-08-02T01:34:33;101260.00;;;25.64;35.35
16613;BME280;8419;52.358;9.752;2022-08-02T01:37:23;101258.00;;;25.58;35.47
16613;BME280;8419;52.358;9.752;2022-08-02T01:40:12;101254.00;;;25.59;35.43
16613;BME280;8419;52.358;9.752;2022-08-02T01:42:59;101245.00;;;25.55;35.48
16613;BME280;8419;52.358;9.752;2022-08-02T01:45:45;101242.00;;;25.55;35.49
16613;BME280;8419;52.358;9.752;2022-08-02T01:48:33;101245.00;;;25.55;35.53
16613;BME280;8419;52.358;9.752;2022-08-02T01:51:21;101249.00;;;25.51;35.59
16613;BME280;8419;52.358;9.752;2022-08-02T01:55:08;101253.00;;;25.47;35.64
16613;BME280;8419;52.358;9.752;2022-08-02T01:57:58;101257.00;;;25.46;35.57
16613;BME280;8419;52.358;9.752;2022-08-02T02:00:46;101252.00;;;25.53;35.46
16613;BME280;8419;52.358;9.752;2022-08-02T02:03:33;101255.00;;;25.45;35.55
16613;BME280;8419;52.358;9.752;2022-08-02T02:06:22;101251.00;;;25.42;35.57
16613;BME280;8419;52.358;9.752;2022-08-02T02:09:08;101254.00;;;25.38;35.65
16613;BME280;8419;52.358;9.752;2022-08-02T02:11:58;101247.00;;;25.37;35.70
16613;BME280;8419;52.358;9.752;2022-08-02T02:14:44;101250.00;;;25.33;35.77
16613;BME280;8419;52.358;9.752;2022-08-02T02:17:31;101235.00;;;25.29;35.82
16613;BME280;8419;52.358;9.752;2022-08-02T02:20:19;101240.00;;;25.36;35.81
16613;BME280;8419;52.358;9.752;2022-08-02T02:23:05;101235.00;;;25.31;35.89
16613;BME280;8419;52.358;9.752;2022-08-02T02:25:52;101245.00;;;25.32;35.93
16613;BME280;8419;52.358;9.752;2022-08-02T02:28:39;101246.00;;;25.23;36.12
16613;BME280;8419;52.358;9.752;2022-08-02T02:31:26;101240.00;;;25.15;36.29
16613;BME280;8419;52.358;9.752;2022-08-02T02:34:15;101245.00;;;25.06;36.49
16613;BME280;8419;52.358;9.752;2022-08-02T02:37:05;101236.00;;;25.08;36.56
16613;BME280;8419;52.358;9.752;2022-08-02T02:39:54;101237.00;;;25.18;36.39
16613;BME280;8419;52.358;9.752;2022-08-02T02:42:41;101232.00;;;25.05;36.60
16613;BME280;8419;52.358;9.752;2022-08-02T02:45:29;101238.00;;;25.04;36.65
16613;BME280;8419;52.358;9.752;2022-08-02T02:48:17;101230.00;;;25.04;36.68
16613;BME280;8419;52.358;9.752;2022-08-02T02:51:04;101225.00;;;25.04;36.68
16613;BME280;8419;52.358;9.752;2022-08-02T02:53:50;101223.00;;;25.13;36.50
16613;BME280;8419;52.358;9.752;2022-08-02T02:56:36;101217.00;;;25.03;36.66
16613;BME280;8419;52.358;9.752;2022-08-02T02:59:22;101219.00;;;24.88;36.97
16613;BME280;8419;52.358;9.752;2022-08-02T03:02:10;101227.00;;;24.92;36.87
16613;BME280;8419;52.358;9.752;2022-08-02T03:04:55;101210.00;;;24.87;37.02
16613;BME280;8419;52.358;9.752;2022-08-02T03:07:42;101210.00;;;24.95;36.87
16613;BME280;8419;52.358;9.752;2022-08-02T03:10:29;101207.00;;;24.82;37.14
16613;BME280;8419;52.358;9.752;2022-08-02T03:13:15;101207.00;;;24.82;37.19
16613;BME280;8419;52.358;9.752;2022-08-02T03:16:01;101205.00;;;24.79;37.23
16613;BME280;8419;52.358;9.752;2022-08-02T03:18:46;101209.00;;;24.85;37.11
16613;BME280;8419;52.358;9.752;2022-08-02T03:21:32;101212.00;;;24.87;37.06
16613;BME280;8419;52.358;9.752;2022-08-02T03:24:17;101212.00;;;24.77;37.23
16613;BME280;8419;52.358;9.752;2022-08-02T03:27:03;101209.00;;;24.75;37.27
16613;BME280;8419;52.358;9.752;2022-08-02T03:29:49;101207.00;;;24.74;37.31
16613;BME280;8419;52.358;9.752;2022-08-02T03:32:34;101208.00;;;24.75;37.31
16613;BME280;8419;52.358;9.752;2022-08-02T03:35:20;101207.00;;;24.74;37.33
16613;BME280;8419;52.358;9.752;2022-08-02T03:38:06;101220.00;;;24.72;37.39
16613;BME280;8419;52.358;9.752;2022-08-02T03:40:53;101214.00;;;24.75;37.38
16613;BME280;8419;52.358;9.752;2022-08-02T03:43:41;101204.00;;;24.74;37.42
16613;BME280;8419;52.358;9.752;2022-08-02T03:46:29;101202.00;;;24.71;37.46
16613;BME280;8419;52.358;9.752;2022-08-02T03:49:16;101214.00;;;24.75;37.42
16613;BME280;8419;52.358;9.752;2022-08-02T03:52:03;101211.00;;;24.77;37.38
16613;BME280;8419;52.358;9.752;2022-08-02T03:54:48;101220.00;;;24.79;37.33
16613;BME280;8419;52.358;9.752;2022-08-02T03:57:36;101214.00;;;24.78;37.33
16613;BME280;8419;52.358;9.752;2022-08-02T04:00:22;101218.00;;;24.76;37.29
16613;BME280;8419;52.358;9.752;2022-08-02T04:03:08;101223.00;;;24.79;37.24
16613;BME280;8419;52.358;9.752;2022-08-02T04:05:53;101229.00;;;24.86;37.11
16613;BME280;8419;52.358;9.752;2022-08-02T04:08:38;101226.00;;;24.89;37.05
16613;BME280;8419;52.358;9.752;2022-08-02T04:11:23;101227.00;;;24.92;37.02
16613;BME280;8419;52.358;9.752;2022-08-02T04:14:15;101233.00;;;25.11;36.75
16613;BME280;8419;52.358;9.752;2022-08-02T04:17:03;101228.00;;;25.06;36.80
16613;BME280;8419;52.358;9.752;2022-08-02T04:19:53;101231.00;;;25.08;36.81
16613;BME280;8419;52.358;9.752;2022-08-02T04:22:43;101235.00;;;25.10;36.82
16613;BME280;8419;52.358;9.752;2022-08-02T04:25:31;101226.00;;;25.06;36.91
16613;BME280;8419;52.358;9.752;2022-08-02T04:28:17;101224.00;;;25.10;36.92
16613;BME280;8419;52.358;9.752;2022-08-02T04:31:03;101231.00;;;25.06;36.94
16613;BME280;8419;52.358;9.752;2022-08-02T04:33:49;101221.00;;;25.18;36.71
16613;BME280;8419;52.358;9.752;2022-08-02T04:36:36;101220.00;;;25.14;36.75
16613;BME280;8419;52.358;9.752;2022-08-02T04:39:21;101229.00;;;24.97;37.04
16613;BME280;8419;52.358;9.752;2022-08-02T04:42:08;101236.00;;;24.98;37.05
16613;BME280;8419;52.358;9.752;2022-08-02T04:44:53;101236.00;;;24.98;37.09
16613;BME280;8419;52.358;9.752;2022-08-02T04:47:39;101232.00;;;25.02;37.03
16613;BME280;8419;52.358;9.752;2022-08-02T04:50:24;101230.00;;;25.10;36.92
16613;BME280;8419;52.358;9.752;2022-08-02T04:53:09;101235.00;;;25.12;36.93
16613;BME280;8419;52.358;9.752;2022-08-02T04:55:54;101227.00;;;25.15;36.91
16613;BME280;8419;52.358;9.752;2022-08-02T04:58:40;101234.00;;;25.11;36.99
16613;BME280;8419;52.358;9.752;2022-08-02T05:01:25;101227.00;;;25.13;36.92
16613;BME280;8419;52.358;9.752;2022-08-02T05:04:10;101236.00;;;25.19;36.82
16613;BME280;8419;52.358;9.752;2022-08-02T05:06:56;101232.00;;;25.21;36.79
16613;BME280;8419;52.358;9.752;2022-08-02T05:09:41;101234.00;;;25.19;36.85
16613;BME280;8419;52.358;9.752;2022-08-02T05:12:27;101232.00;;;25.23;36.85
16613;BME280;8419;52.358;9.752;2022-08-02T05:15:13;101234.00;;;25.29;36.84
16613;BME280;8419;52.358;9.752;2022-08-02T05:18:00;101227.00;;;25.41;36.72
16613;BME280;8419;52.358;9.752;2022-08-02T05:20:46;101227.00;;;25.50;36.60
16613;BME280;8419;52.358;9.752;2022-08-02T05:23:31;101232.00;;;25.55;36.59
16613;BME280;8419;52.358;9.752;2022-08-02T05:26:16;101237.00;;;25.58;36.58
16613;BME280;8419;52.358;9.752;2022-08-02T05:29:01;101241.00;;;25.67;36.54
16613;BME280;8419;52.358;9.752;2022-08-02T05:31:48;101228.00;;;25.84;36.30
16613;BME280;8419;52.358;9.752;2022-08-02T05:34:34;101229.00;;;25.84;36.29
16613;BME280;8419;52.358;9.752;2022-08-02T05:37:19;101235.00;;;25.73;36.44
16613;BME280;8419;52.358;9.752;2022-08-02T05:40:07;101231.00;;;25.69;36.48
16613;BME280;8419;52.358;9.752;2022-08-02T05:42:53;101230.00;;;25.62;36.57
16613;BME280;8419;52.358;9.752;2022-08-02T05:45:39;101233.00;;;25.58;36.61
16613;BME280;8419;52.358;9.752;2022-08-02T05:48:25;101236.00;;;25.56;36.66
16613;BME280;8419;52.358;9.752;2022-08-02T05:51:15;101235.00;;;25.55;36.68
16613;BME280;8419;52.358;9.752;2022-08-02T05:54:18;101242.00;;;25.55;36.71
16613;BME280;8419;52.358;9.752;2022-08-02T05:57:07;101245.00;;;25.52;36.79
16613;BME280;8419;52.358;9.752;2022-08-02T06:00:03;101249.00;;;25.51;36.82
16613;BME280;8419;52.358;9.752;2022-08-02T06:03:09;101242.00;;;25.55;36.82
16613;BME280;8419;52.358;9.752;2022-08-02T06:06:05;101237.00;;;25.60;36.83
16613;BME280;8419;52.358;9.752;2022-08-02T06:08:58;101236.00;;;25.75;36.62
16613;BME280;8419;52.358;9.752;2022-08-02T06:11:46;101238.00;;;25.70;36.79
16613;BME280;8419;52.358;9.752;2022-08-02T06:14:33;101236.00;;;25.75;36.77
16613;BME280;8419;52.358;9.752;2022-08-02T06:17:19;101234.00;;;25.81;36.73
16613;BME280;8419;52.358;9.752;2022-08-02T06:20:07;101238.00;;;25.89;36.64
16613;BME280;8419;52.358;9.752;2022-08-02T06:22:55;101230.00;;;25.89;36.70
16613;BME280;8419;52.358;9.752;2022-08-02T06:25:45;101231.00;;;25.92;36.67
16613;BME280;8419;52.358;9.752;2022-08-02T06:28:32;101234.00;;;25.97;36.60
16613;BME280;8419;52.358;9.752;2022-08-02T06:31:21;101232.00;;;26.02;36.47
16613;BME280;8419;52.358;9.752;2022-08-02T06:34:06;101235.00;;;25.98;36.58
16613;BME280;8419;52.358;9.752;2022-08-02T06:36:58;101235.00;;;26.04;36.53
16613;BME280;8419;52.358;9.752;2022-08-02T06:39:48;101225.00;;;26.09;36.51
16613;BME280;8419;52.358;9.752;2022-08-02T06:42:43;101236.00;;;26.24;36.26
16613;BME280;8419;52.358;9.752;2022-08-02T06:45:32;101239.00;;;26.32;36.14
16613;BME280;8419;52.358;9.752;2022-08-02T06:48:18;101244.00;;;26.35;36.12
16613;BME280;8419;52.358;9.752;2022-08-02T06:51:04;101238.00;;;26.38;36.09
16613;BME280;8419;52.358;9.752;2022-08-02T06:53:49;101234.00;;;26.48;36.00
16613;BME280;8419;52.358;9.752;2022-08-02T06:56:35;101233.00;;;26.56;35.92
16613;BME280;8419;52.358;9.752;2022-08-02T06:59:20;101230.00;;;26.62;35.85
16613;BME280;8419;52.358;9.752;2022-08-02T07:02:06;101237.00;;;26.70;35.77
16613;BME280;8419;52.358;9.752;2022-08-02T07:04:52;101234.00;;;26.73;35.79
16613;BME280;8419;52.358;9.752;2022-08-02T07:07:39;101237.00;;;26.78;35.77
16613;BME280;8419;52.358;9.752;2022-08-02T07:10:25;101233.00;;;26.85;35.68
16613;BME280;8419;52.358;9.752;2022-08-02T07:13:11;101239.00;;;26.87;35.78
16613;BME280;8419;52.358;9.752;2022-08-02T07:15:57;101232.00;;;26.93;35.74
16613;BME280;8419;52.358;9.752;2022-08-02T07:18:42;101218.00;;;27.01;35.70
16613;BME280;8419;52.358;9.752;2022-08-02T07:21:27;101210.00;;;27.06;35.73
16613;BME280;8419;52.358;9.752;2022-08-02T07:24:12;101203.00;;;27.08;35.84
16613;BME280;8419;52.358;9.752;2022-08-02T07:26:58;101205.00;;;27.22;35.76
16613;BME280;8419;52.358;9.752;2022-08-02T07:29:44;101199.00;;;27.25;35.78
16613;BME280;8419;52.358;9.752;2022-08-02T07:32:31;101198.00;;;27.27;35.89
16613;BME280;8419;52.358;9.752;2022-08-02T07:35:16;101195.00;;;27.41;35.83
16613;BME280;8419;52.358;9.752;2022-08-02T07:38:02;101186.00;;;27.49;35.73
16613;BME280;8419;52.358;9.752;2022-08-02T07:40:47;101201.00;;;27.60;35.69
16613;BME280;8419;52.358;9.752;2022-08-02T07:43:32;101194.00;;;27.70;35.63
16613;BME280;8419;52.358;9.752;2022-08-02T07:46:18;101196.00;;;27.79;35.62
16613;BME280;8419;52.358;9.752;2022-08-02T07:49:04;101195.00;;;27.92;35.48
16613;BME280;8419;52.358;9.752;2022-08-02T07:51:49;101200.00;;;27.97;35.52
16613;BME280;8419;52.358;9.752;2022-08-02T07:54:35;101197.00;;;27.95;35.60
16613;BME280;8419;52.358;9.752;2022-08-02T07:57:20;101202.00;;;28.01;35.59
16613;BME280;8419;52.358;9.752;2022-08-02T08:00:09;101202.00;;;28.03;35.63
16613;BME280;8419;52.358;9.752;2022-08-02T08:02:54;101202.00;;;28.09;35.69
16613;BME280;8419;52.358;9.752;2022-08-02T08:05:39;101199.00;;;28.23;35.58
16613;BME280;8419;52.358;9.752;2022-08-02T08:08:25;101204.00;;;28.29;35.59
16613;BME280;8419;52.358;9.752;2022-08-02T08:11:10;101211.00;;;28.40;35.57
16613;BME280;8419;52.358;9.752;2022-08-02T08:13:56;101215.00;;;28.48;35.56
16613;BME280;8419;52.358;9.752;2022-08-02T08:16:41;101208.00;;;28.50;35.67
16613;BME280;8419;52.358;9.752;2022-08-02T08:19:26;101202.00;;;28.63;35.66
16613;BME280;8419;52.358;9.752;2022-08-02T08:22:12;101191.00;;;28.73;35.60
16613;BME280;8419;52.358;9.752;2022-08-02T08:24:58;101182.00;;;28.84;35.50
16613;BME280;8419;52.358;9.752;2022-08-02T08:27:48;101186.00;;;28.89;35.51
16613;BME280;8419;52.358;9.752;2022-08-02T08:30:33;101179.00;;;28.99;35.46
16613;BME280;8419;52.358;9.752;2022-08-02T08:33:18;101179.00;;;29.10;35.38
16613;BME280;8419;52.358;9.752;2022-08-02T08:36:04;101174.00;;;29.23;35.24
16613;BME280;8419;52.358;9.752;2022-08-02T08:38:50;101163.00;;;29.28;35.29
16613;BME280;8419;52.358;9.752;2022-08-02T08:41:35;101156.00;;;29.40;35.23
16613;BME280;8419;52.358;9.752;2022-08-02T08:44:21;101144.00;;;29.65;34.92
16613;BME280;8419;52.358;9.752;2022-08-02T08:47:08;101152.00;;;29.85;34.79
16613;BME280;8419;52.358;9.752;2022-08-02T08:49:56;101155.00;;;30.05;34.61
16613;BME280;8419;52.358;9.752;2022-08-02T08:52:51;101152.00;;;30.26;34.43
16613;BME280;8419;52.358;9.752;2022-08-02T08:55:38;101137.00;;;30.66;33.95
16613;BME280;8419;52.358;9.752;2022-08-02T08:58:24;101136.00;;;31.02;33.46
16613;BME280;8419;52.358;9.752;2022-08-02T09:01:09;101142.00;;;31.22;33.18
16613;BME280;8419;52.358;9.752;2022-08-02T09:03:58;101147.00;;;31.54;32.78
16613;BME280;8419;52.358;9.752;2022-08-02T09:06:43;101136.00;;;31.77;32.40
16613;BME280;8419;52.358;9.752;2022-08-02T09:09:29;101135.00;;;31.80;31.98
16613;BME280;8419;52.358;9.752;2022-08-02T09:12:16;101144.00;;;31.77;31.91
16613;BME280;8419;52.358;9.752;2022-08-02T09:15:04;101145.00;;;31.84;31.73
16613;BME280;8419;52.358;9.752;2022-08-02T09:17:50;101144.00;;;32.00;31.46
16613;BME280;8419;52.358;9.752;2022-08-02T09:20:53;101143.00;;;32.04;31.28
16613;BME280;8419;52.358;9.752;2022-08-02T09:23:40;101143.00;;;32.24;30.98
16613;BME280;8419;52.358;9.752;2022-08-02T09:26:28;101149.00;;;32.13;30.56
16613;BME280;8419;52.358;9.752;2022-08-02T09:29:14;101146.00;;;32.09;30.39
16613;BME280;8419;52.358;9.752;2022-08-02T09:32:03;101143.00;;;32.11;30.15
16613;BME280;8419;52.358;9.752;2022-08-02T09:34:50;101138.00;;;32.15;29.86
16613;BME280;8419;52.358;9.752;2022-08-02T09:37:36;101143.00;;;32.27;29.77
16613;BME280;8419;52.358;9.752;2022-08-02T09:40:34;101144.00;;;32.47;29.36
16613;BME280;8419;52.358;9.752;2022-08-02T09:43:19;101138.00;;;32.41;28.91
16613;BME280;8419;52.358;9.752;2022-08-02T09:46:14;101149.00;;;32.47;28.64
16613;BME280;8419;52.358;9.752;2022-08-02T09:49:01;101144.00;;;32.44;28.52
16613;BME280;8419;52.358;9.752;2022-08-02T09:51:49;101142.00;;;32.52;28.16
16613;BME280;8419;52.358;9.752;2022-08-02T09:54:38;101129.00;;;32.62;27.96
16613;BME280;8419;52.358;9.752;2022-08-02T09:57:28;101135.00;;;32.70;27.83
16613;BME280;8419;52.358;9.752;2022-08-02T10:00:15;101152.00;;;32.69;27.13
16613;BME280;8419;52.358;9.752;2022-08-02T10:03:08;101149.00;;;32.74;27.31
16613;BME280;8419;52.358;9.752;2022-08-02T10:05:55;101136.00;;;32.82;27.19
16613;BME280;8419;52.358;9.752;2022-08-02T10:08:42;101133.00;;;32.85;27.05
16613;BME280;8419;52.358;9.752;2022-08-02T10:11:28;101125.00;;;32.99;27.02
16613;BME280;8419;52.358;9.752;2022-08-02T10:14:13;101122.00;;;33.17;26.98
16613;BME280;8419;52.358;9.752;2022-08-02T10:16:59;101130.00;;;33.38;26.90
16613;BME280;8419;52.358;9.752;2022-08-02T10:19:45;101128.00;;;33.50;26.70
16613;BME280;8419;52.358;9.752;2022-08-02T10:22:33;101119.00;;;33.46;26.57
16613;BME280;8419;52.358;9.752;2022-08-02T10:25:21;101134.00;;;33.54;26.31
16613;BME280;8419;52.358;9.752;2022-08-02T10:28:08;101117.00;;;33.70;25.92
16613;BME280;8419;52.358;9.752;2022-08-02T10:30:55;101116.00;;;33.76;26.05
16613;BME280;8419;52.358;9.752;2022-08-02T10:33:44;101120.00;;;33.93;26.01
16613;BME280;8419;52.358;9.752;2022-08-02T10:36:30;101125.00;;;33.94;26.03
16613;BME280;8419;52.358;9.752;2022-08-02T10:39:16;101113.00;;;33.84;25.71
16613;BME280;8419;52.358;9.752;2022-08-02T10:42:02;101111.00;;;33.91;25.56
16613;BME280;8419;52.358;9.752;2022-08-02T10:44:47;101110.00;;;33.97;25.35
16613;BME280;8419;52.358;9.752;2022-08-02T10:47:33;101108.00;;;34.04;25.32
16613;BME280;8419;52.358;9.752;2022-08-02T10:50:18;101097.00;;;34.14;25.19
16613;BME280;8419;52.358;9.752;2022-08-02T10:53:25;101091.00;;;34.19;25.12
16613;BME280;8419;52.358;9.752;2022-08-02T10:56:10;101106.00;;;34.39;25.05
16613;BME280;8419;52.358;9.752;2022-08-02T10:59:23;101107.00;;;34.46;25.04
16613;BME280;8419;52.358;9.752;2022-08-02T11:02:10;101106.00;;;34.69;24.84
16613;BME280;8419;52.358;9.752;2022-08-02T11:05:08;101105.00;;;34.78;24.68
16613;BME280;8419;52.358;9.752;2022-08-02T11:07:54;101105.00;;;34.98;24.54
16613;BME280;8419;52.358;9.752;2022-08-02T11:10:39;101098.00;;;35.17;24.40
16613;BME280;8419;52.358;9.752;2022-08-02T11:13:25;101099.00;;;35.21;24.45
16613;BME280;8419;52.358;9.752;2022-08-02T11:16:11;101099.00;;;35.11;24.22
16613;BME280;8419;52.358;9.752;2022-08-02T11:19:03;101100.00;;;35.21;24.23
16613;BME280;8419;52.358;9.752;2022-08-02T11:22:00;101099.00;;;35.42;24.15
16613;BME280;8419;52.358;9.752;2022-08-02T11:24:46;101099.00;;;35.64;24.04
16613;BME280;8419;52.358;9.752;2022-08-02T11:27:32;101102.00;;;35.54;23.45
16613;BME280;8419;52.358;9.752;2022-08-02T11:30:18;101104.00;;;35.49;23.32
16613;BME280;8419;52.358;9.752;2022-08-02T11:33:04;101112.00;;;35.49;23.15
16613;BME280;8419;52.358;9.752;2022-08-02T11:35:50;101099.00;;;35.54;23.11
16613;BME280;8419;52.358;9.752;2022-08-02T11:38:35;101094.00;;;35.68;23.07
16613;BME280;8419;52.358;9.752;2022-08-02T11:41:21;101096.00;;;35.80;22.87
16613;BME280;8419;52.358;9.752;2022-08-02T11:44:07;101089.00;;;35.91;22.77
16613;BME280;8419;52.358;9.752;2022-08-02T11:46:55;101089.00;;;36.13;22.61
16613;BME280;8419;52.358;9.752;2022-08-02T11:49:40;101080.00;;;36.33;22.41
16613;BME280;8419;52.358;9.752;2022-08-02T11:52:32;101081.00;;;36.60;22.22
16613;BME280;8419;52.358;9.752;2022-08-02T11:55:24;101071.00;;;36.90;21.97
16613;BME280;8419;52.358;9.752;2022-08-02T11:58:10;101082.00;;;37.15;21.67
16613;BME280;8419;52.358;9.752;2022-08-02T12:00:55;101078.00;;;37.16;21.25
16613;BME280;8419;52.358;9.752;2022-08-02T12:03:41;101068.00;;;37.22;21.09
16613;BME280;8419;52.358;9.752;2022-08-02T12:06:28;101072.00;;;37.17;20.86
16613;BME280;8419;52.358;9.752;2022-08-02T12:09:14;101062.00;;;37.35;20.83
16613;BME280;8419;52.358;9.752;2022-08-02T12:12:00;101057.00;;;37.80;20.55
16613;BME280;8419;52.358;9.752;2022-08-02T12:14:46;101047.00;;;38.26;20.21
16613;BME280;8419;52.358;9.752;2022-08-02T12:17:31;101059.00;;;38.61;19.67
16613;BME280;8419;52.358;9.752;2022-08-02T12:20:36;101060.00;;;38.86;19.51
16613;BME280;8419;52.358;9.752;2022-08-02T12:23:23;101054.00;;;39.10;19.33
16613;BME280;8419;52.358;9.752;2022-08-02T12:26:08;101053.00;;;38.95;19.36
16613;BME280;8419;52.358;9.752;2022-08-02T12:28:56;101058.00;;;38.86;19.52
16613;BME280;8419;52.358;9.752;2022-08-02T12:31:43;101064.00;;;38.98;19.56
16613;BME280;8419;52.358;9.752;2022-08-02T12:34:33;101061.00;;;39.06;19.37
16613;BME280;8419;52.358;9.752;2022-08-02T12:37:25;101057.00;;;39.12;19.43
16613;BME280;8419;52.358;9.752;2022-08-02T12:40:18;101055.00;;;39.41;19.22
16613;BME280;8419;52.358;9.752;2022-08-02T12:43:06;101050.00;;;39.85;19.05
16613;BME280;8419;52.358;9.752;2022-08-02T12:45:53;101049.00;;;40.23;18.64
16613;BME280;8419;52.358;9.752;2022-08-02T12:48:39;101048.00;;;40.31;18.54
16613;BME280;8419;52.358;9.752;2022-08-02T12:51:27;101047.00;;;40.50;18.41
16613;BME280;8419;52.358;9.752;2022-08-02T12:54:14;101043.00;;;40.50;18.47
16613;BME280;8419;52.358;9.752;2022-08-02T12:57:10;101032.00;;;40.78;18.27
16613;BME280;8419;52.358;9.752;2022-08-02T12:59:55;101022.00;;;41.36;17.99
16613;BME280;8419;52.358;9.752;2022-08-02T13:02:41;101011.00;;;41.87;17.76
16613;BME280;8419;52.358;9.752;2022-08-02T13:05:28;101025.00;;;42.21;17.53
16613;BME280;8419;52.358;9.752;2022-08-02T13:08:14;101032.00;;;42.16;17.28
16613;BME280;8419;52.358;9.752;2022-08-02T13:11:01;101022.00;;;42.15;17.22
16613;BME280;8419;52.358;9.752;2022-08-02T13:13:47;101014.00;;;41.99;17.24
16613;BME280;8419;52.358;9.752;2022-08-02T13:16:32;101023.00;;;42.03;17.22
16613;BME280;8419;52.358;9.752;2022-08-02T13:19:18;101019.00;;;42.19;17.27
16613;BME280;8419;52.358;9.752;2022-08-02T13:22:04;101012.00;;;42.23;17.13
16613;BME280;8419;52.358;9.752;2022-08-02T13:24:50;101009.00;;;42.67;16.84
16613;BME280;8419;52.358;9.752;2022-08-02T13:27:36;100992.00;;;42.26;16.98
16613;BME280;8419;52.358;9.752;2022-08-02T13:30:22;100997.00;;;42.32;17.08
16613;BME280;8419;52.358;9.752;2022-08-02T13:33:07;100995.00;;;43.43;16.42
16613;BME280;8419;52.358;9.752;2022-08-02T13:35:53;101003.00;;;43.88;16.15
16613;BME280;8419;52.358;9.752;2022-08-02T13:38:38;100997.00;;;43.54;16.25
16613;BME280;8419;52.358;9.752;2022-08-02T13:41:23;100998.00;;;42.64;16.76
16613;BME280;8419;52.358;9.752;2022-08-02T13:44:08;100986.00;;;42.48;16.96
16613;BME280;8419;52.358;9.752;2022-08-02T13:46:53;100975.00;;;42.75;16.75
16613;BME280;8419;52.358;9.752;2022-08-02T13:49:38;100980.00;;;43.15;16.54
16613;BME280;8419;52.358;9.752;2022-08-02T13:52:25;100977.00;;;43.42;16.41
16613;BME280;8419;52.358;9.752;2022-08-02T13:55:11;100985.00;;;43.97;16.08
16613;BME280;8419;52.358;9.752;2022-08-02T13:57:56;100990.00;;;44.93;15.30
16613;BME280;8419;52.358;9.752;2022-08-02T14:00:42;100985.00;;;45.70;14.84
16613;BME280;8419;52.358;9.752;2022-08-02T14:03:27;100980.00;;;46.26;14.55
16613;BME280;8419;52.358;9.752;2022-08-02T14:06:13;100982.00;;;46.93;14.00
16613;BME280;8419;52.358;9.752;2022-08-02T14:08:59;100971.00;;;47.44;13.69
16613;BME280;8419;52.358;9.752;2022-08-02T14:11:46;100967.00;;;47.20;13.91
16613;BME280;8419;52.358;9.752;2022-08-02T14:14:32;100965.00;;;46.76;14.21
16613;BME280;8419;52.358;9.752;2022-08-02T14:17:18;100969.00;;;46.34;14.49
16613;BME280;8419;52.358;9.752;2022-08-02T14:20:04;100954.00;;;45.70;14.98
16613;BME280;8419;52.358;9.752;2022-08-02T14:22:49;100960.00;;;44.95;15.50
16613;BME280;8419;52.358;9.752;2022-08-02T14:25:35;100956.00;;;44.25;16.04
16613;BME280;8419;52.358;9.752;2022-08-02T14:28:21;100958.00;;;43.38;16.35
16613;BME280;8419;52.358;9.752;2022-08-02T14:31:06;100946.00;;;42.96;16.53
16613;BME280;8419;52.358;9.752;2022-08-02T14:33:51;100937.00;;;42.67;16.68
16613;BME280;8419;52.358;9.752;2022-08-02T14:36:37;100947.00;;;42.46;16.90
16613;BME280;8419;52.358;9.752;2022-08-02T14:39:22;100940.00;;;42.11;17.20
16613;BME280;8419;52.358;9.752;2022-08-02T14:42:08;100950.00;;;42.16;17.21
16613;BME280;8419;52.358;9.752;2022-08-02T14:44:53;100945.00;;;41.77;17.24
16613;BME280;8419;52.358;9.752;2022-08-02T14:47:38;100945.00;;;41.42;17.59